createdAt,value
2023-04-11T00:00:01.154Z,98182.03
2023-04-11T00:01:05.537Z,98186.22
2023-04-11T00:02:08.908Z,98183.91
2023-04-11T00:03:12.307Z,98183.69
2023-04-11T00:04:17.571Z,98176.41
2023-04-11T00:05:21.238Z,98176.03
2023-04-11T00:06:26.492Z,98172.41
2023-04-11T00:07:29.780Z,98177.53
2023-04-11T00:08:33.008Z,98180.03
2023-04-11T00:09:36.410Z,98184.41
2023-04-11T00:10:39.556Z,98183.31
2023-04-11T00:11:42.495Z,98181.13
2023-04-11T00:12:45.675Z,98171.50
2023-04-11T00:13:49.015Z,98179.13
2023-04-11T00:14:54.189Z,98172.78
2023-04-11T00:15:57.897Z,98168.81
2023-04-11T00:17:01.668Z,98172.25
2023-04-11T00:18:06.780Z,98175.88
2023-04-11T00:19:09.836Z,98175.16
2023-04-11T00:20:13.368Z,98172.28
2023-04-11T00:21:16.512Z,98167.16
2023-04-11T00:22:19.665Z,98168.25
2023-04-11T00:23:22.618Z,98168.25
2023-04-11T00:24:26.364Z,98167.88
2023-04-11T00:25:30.330Z,98163.53
2023-04-11T00:26:33.674Z,98154.25
2023-04-11T00:27:36.684Z,98161.69
2023-04-11T00:28:39.885Z,98155.50
2023-04-11T00:29:42.897Z,98164.78
2023-04-11T00:30:45.856Z,98161.69
2023-04-11T00:31:49.118Z,98157.47
2023-04-11T00:32:52.145Z,98160.56
2023-04-11T00:33:55.572Z,98160.72
2023-04-11T00:34:59.356Z,98154.34
2023-04-11T00:36:02.498Z,98153.09
2023-04-11T00:37:06.018Z,98144.31
2023-04-11T00:38:09.085Z,98149.56
2023-04-11T00:39:13.926Z,98147.72
2023-04-11T00:40:18.966Z,98145.34
2023-04-11T00:41:22.093Z,98141.84
2023-04-11T00:42:24.955Z,98139.09
2023-04-11T00:43:27.854Z,98144.19
2023-04-11T00:44:30.922Z,98144.34
2023-04-11T00:45:34.095Z,98139.25
2023-04-11T00:46:37.939Z,98136.81
2023-04-11T00:47:42.348Z,98139.16
2023-04-11T00:48:45.747Z,98135.88
2023-04-11T00:49:49.098Z,98142.72
2023-04-11T00:50:52.461Z,98140.00
2023-04-11T00:51:55.608Z,98134.53
2023-04-11T00:52:58.927Z,98139.56
2023-04-11T00:54:02.102Z,98139.91
2023-04-11T00:55:05.648Z,98144.06
2023-04-11T00:56:10.056Z,98148.09
2023-04-11T00:57:13.576Z,98140.97
2023-04-11T00:58:18.524Z,98140.25
2023-04-11T00:59:21.668Z,98144.25
2023-04-11T01:00:25.384Z,98150.25
2023-04-11T01:01:30.389Z,98141.69
2023-04-11T01:02:33.742Z,98138.72
2023-04-11T01:03:39.095Z,98137.78
2023-04-11T01:04:42.096Z,98137.22
2023-04-11T01:05:46.958Z,98133.75
2023-04-11T01:06:54.620Z,98135.75
2023-04-11T01:07:57.623Z,98133.03
2023-04-11T01:09:00.776Z,98130.16
2023-04-11T01:10:06.091Z,98132.16
2023-04-11T01:11:11.243Z,98126.13
2023-04-11T01:12:16.500Z,98128.78
2023-04-11T01:13:19.600Z,98125.66
2023-04-11T01:14:24.401Z,98120.38
2023-04-11T01:15:27.731Z,98127.69
2023-04-11T01:16:31.104Z,98120.59
2023-04-11T01:17:34.292Z,98118.59
2023-04-11T01:18:37.698Z,98129.81
2023-04-11T01:19:40.857Z,98118.13
2023-04-11T01:20:44.333Z,98119.59
2023-04-11T01:21:50.073Z,98122.12
2023-04-11T01:22:54.593Z,98121.19
2023-04-11T01:23:58.823Z,98114.44
2023-04-11T01:25:02.433Z,98125.13
2023-04-11T01:26:09.795Z,98114.19
2023-04-11T01:27:12.660Z,98109.88
2023-04-11T01:28:15.944Z,98112.53
2023-04-11T01:29:18.961Z,98110.50
2023-04-11T01:30:22.004Z,98109.78
2023-04-11T01:31:25.164Z,98111.22
2023-04-11T01:32:28.173Z,98113.19
2023-04-11T01:33:31.135Z,98113.56
2023-04-11T01:34:36.418Z,98111.06
2023-04-11T01:35:39.509Z,98112.94
2023-04-11T01:36:42.895Z,98116.22
2023-04-11T01:37:46.242Z,98113.31
2023-04-11T01:38:49.710Z,98114.28
2023-04-11T01:39:53.121Z,98116.69
2023-04-11T01:40:58.248Z,98114.91
2023-04-11T01:42:03.120Z,98107.66
2023-04-11T01:43:08.433Z,98112.09
2023-04-11T01:44:11.500Z,98104.13
2023-04-11T01:45:15.556Z,98103.06
2023-04-11T01:46:18.629Z,98097.63
2023-04-11T01:47:21.557Z,98100.06
2023-04-11T01:48:24.976Z,98102.28
2023-04-11T01:49:27.902Z,98109.34
2023-04-11T01:50:30.867Z,98106.47
2023-04-11T01:51:33.928Z,98103.03
2023-04-11T01:52:36.776Z,98104.72
2023-04-11T01:53:39.876Z,98108.78
2023-04-11T01:54:42.781Z,98096.63
2023-04-11T01:55:45.718Z,98106.31
2023-04-11T01:56:48.658Z,98095.06
2023-04-11T01:57:51.590Z,98105.94
2023-04-11T01:58:55.223Z,98105.56
2023-04-11T01:59:58.230Z,98101.19
2023-04-11T02:01:02.060Z,98096.34
2023-04-11T02:02:05.198Z,98095.94
2023-04-11T02:03:08.151Z,98095.94
2023-04-11T02:04:11.572Z,98102.75
2023-04-11T02:05:14.579Z,98095.16
2023-04-11T02:06:17.648Z,98092.62
2023-04-11T02:07:21.234Z,98094.06
2023-04-11T02:08:24.644Z,98101.16
2023-04-11T02:09:27.944Z,98092.78
2023-04-11T02:10:31.803Z,98097.41
2023-04-11T02:11:39.263Z,98102.72
2023-04-11T02:12:42.090Z,98090.31
2023-04-11T02:13:46.147Z,98088.16
2023-04-11T02:14:50.125Z,98095.19
2023-04-11T02:15:53.216Z,98088.66
2023-04-11T02:16:57.003Z,98088.34
2023-04-11T02:18:00.615Z,98092.53
2023-04-11T02:19:04.049Z,98090.88
2023-04-11T02:20:08.388Z,98083.94
2023-04-11T02:21:12.017Z,98080.34
2023-04-11T02:22:16.212Z,98082.50
2023-04-11T02:23:19.578Z,98080.13
2023-04-11T02:24:22.590Z,98079.91
2023-04-11T02:25:25.694Z,98076.53
2023-04-11T02:26:28.816Z,98075.66
2023-04-11T02:27:32.510Z,98083.16
2023-04-11T02:28:36.993Z,98073.91
2023-04-11T02:29:39.983Z,98082.63
2023-04-11T02:30:43.076Z,98074.44
2023-04-11T02:31:49.769Z,98070.78
2023-04-11T02:32:53.161Z,98076.28
2023-04-11T02:33:56.133Z,98072.09
2023-04-11T02:34:58.946Z,98078.09
2023-04-11T02:36:02.005Z,98065.00
2023-04-11T02:37:04.856Z,98073.94
2023-04-11T02:38:07.829Z,98076.53
2023-04-11T02:39:10.668Z,98067.97
2023-04-11T02:40:13.619Z,98070.88
2023-04-11T02:41:16.618Z,98069.41
2023-04-11T02:42:19.609Z,98077.59
2023-04-11T02:43:22.438Z,98073.25
2023-04-11T02:44:26.635Z,98074.72
2023-04-11T02:45:29.528Z,98073.25
2023-04-11T02:46:32.652Z,98071.47
2023-04-11T02:47:35.536Z,98070.91
2023-04-11T02:48:38.776Z,98058.75
2023-04-11T02:49:42.614Z,98073.66
2023-04-11T02:50:45.649Z,98066.22
2023-04-11T02:51:50.782Z,98063.69
2023-04-11T02:52:54.175Z,98071.78
2023-04-11T02:53:57.845Z,98063.63
2023-04-11T02:55:00.827Z,98067.47
2023-04-11T02:56:03.787Z,98067.31
2023-04-11T02:57:07.565Z,98067.50
2023-04-11T02:58:10.881Z,98075.13
2023-04-11T02:59:14.164Z,98074.59
2023-04-11T03:00:19.702Z,98076.94
2023-04-11T03:01:25.197Z,98080.41
2023-04-11T03:02:30.407Z,98081.84
2023-04-11T03:03:33.713Z,98082.41
2023-04-11T03:04:37.345Z,98076.06
2023-04-11T03:05:40.436Z,98077.31
2023-04-11T03:06:43.259Z,98079.13
2023-04-11T03:07:47.187Z,98089.66
2023-04-11T03:08:50.405Z,98090.75
2023-04-11T03:09:53.289Z,98088.75
2023-04-11T03:10:56.274Z,98087.13
2023-04-11T03:11:59.405Z,98082.41
2023-04-11T03:13:02.308Z,98084.41
2023-04-11T03:14:05.137Z,98089.84
2023-04-11T03:15:08.608Z,98083.13
2023-04-11T03:16:14.175Z,98081.31
2023-04-11T03:17:17.175Z,98080.75
2023-04-11T03:18:22.689Z,98083.88
2023-04-11T03:19:25.743Z,98083.66
2023-04-11T03:20:28.826Z,98083.66
2023-04-11T03:21:32.023Z,98070.06
2023-04-11T03:22:34.817Z,98074.63
2023-04-11T03:23:38.681Z,98074.94
2023-04-11T03:24:41.601Z,98072.63
2023-04-11T03:25:48.270Z,98077.84
2023-04-11T03:26:51.345Z,98081.84
2023-04-11T03:27:54.317Z,98077.84
2023-04-11T03:28:57.452Z,98070.97
2023-04-11T03:30:00.506Z,98077.69
2023-04-11T03:31:03.630Z,98071.16
2023-04-11T03:32:07.135Z,98074.97
2023-04-11T03:33:10.102Z,98072.63
2023-04-11T03:34:12.908Z,98069.88
2023-04-11T03:35:17.215Z,98068.97
2023-04-11T03:36:20.145Z,98077.31
2023-04-11T03:37:23.077Z,98070.63
2023-04-11T03:38:26.757Z,98074.41
2023-04-11T03:39:29.633Z,98070.97
2023-04-11T03:40:32.958Z,98083.69
2023-04-11T03:41:36.369Z,98073.88
2023-04-11T03:42:42.734Z,98075.13
2023-04-11T03:43:45.860Z,98072.97
2023-04-11T03:44:48.795Z,98070.06
2023-04-11T03:45:52.110Z,98076.03
2023-04-11T03:46:55.695Z,98070.44
2023-04-11T03:47:58.618Z,98068.97
2023-04-11T03:49:01.540Z,98074.97
2023-04-11T03:50:04.875Z,98070.97
2023-04-11T03:51:08.151Z,98061.72
2023-04-11T03:52:11.645Z,98058.09
2023-04-11T03:53:14.735Z,98068.25
2023-04-11T03:54:18.187Z,98063.91
2023-04-11T03:55:21.260Z,98068.06
2023-04-11T03:56:24.254Z,98065.19
2023-04-11T03:57:28.311Z,98060.44
2023-04-11T03:58:31.467Z,98059.91
2023-04-11T03:59:34.357Z,98054.62
2023-04-11T04:00:37.416Z,98057.53
2023-04-11T04:01:40.488Z,98057.19
2023-04-11T04:02:43.710Z,98053.75
2023-04-11T04:03:46.951Z,98062.97
2023-04-11T04:04:58.944Z,98062.63
2023-04-11T04:06:01.829Z,98060.28
2023-04-11T04:07:04.759Z,98063.53
2023-04-11T04:08:08.194Z,98057.37
2023-04-11T04:09:11.319Z,98058.09
2023-04-11T04:10:14.366Z,98053.38
2023-04-11T04:11:17.240Z,98049.19
2023-04-11T04:12:23.195Z,98050.09
2023-04-11T04:13:27.268Z,98049.91
2023-04-11T04:14:30.139Z,98040.28
2023-04-11T04:15:32.982Z,98039.03
2023-04-11T04:16:35.947Z,98047.19
2023-04-11T04:17:39.038Z,98038.81
2023-04-11T04:18:41.887Z,98048.25
2023-04-11T04:19:45.087Z,98045.53
2023-04-11T04:20:48.114Z,98051.91
2023-04-11T04:21:51.097Z,98047.53
2023-04-11T04:22:54.183Z,98054.06
2023-04-11T04:23:57.226Z,98053.88
2023-04-11T04:25:00.566Z,98052.97
2023-04-11T04:26:03.522Z,98049.31
2023-04-11T04:27:09.573Z,98053.69
2023-04-11T04:28:13.110Z,98054.81
2023-04-11T04:29:18.384Z,98051.91
2023-04-11T04:30:22.257Z,98056.78
2023-04-11T04:31:30.292Z,98051.88
2023-04-11T04:32:33.451Z,98046.25
2023-04-11T04:33:36.344Z,98045.69
2023-04-11T04:34:42.087Z,98051.88
2023-04-11T04:35:45.386Z,98054.38
2023-04-11T04:36:49.455Z,98049.31
2023-04-11T04:37:52.436Z,98051.44
2023-04-11T04:38:57.838Z,98054.16
2023-04-11T04:40:12.374Z,98047.06
2023-04-11T04:41:22.406Z,98050.31
2023-04-11T04:42:29.518Z,98047.75
2023-04-11T04:43:33.207Z,98042.50
2023-04-11T04:44:36.324Z,98042.87
2023-04-11T04:45:39.156Z,98047.44
2023-04-11T04:46:42.684Z,98042.53
2023-04-11T04:47:45.681Z,98040.34
2023-04-11T04:48:48.814Z,98044.44
2023-04-11T04:49:56.271Z,98044.78
2023-04-11T04:50:59.454Z,98036.41
2023-04-11T04:52:02.624Z,98050.37
2023-04-11T04:53:06.967Z,98042.94
2023-04-11T04:54:09.769Z,98043.53
2023-04-11T04:55:12.605Z,98039.72
2023-04-11T04:56:15.945Z,98035.34
2023-04-11T04:57:19.051Z,98035.91
2023-04-11T04:58:22.145Z,98037.75
2023-04-11T04:59:25.130Z,98037.56
2023-04-11T05:00:27.924Z,98032.84
2023-04-11T05:01:33.361Z,98034.47
2023-04-11T05:02:38.089Z,98023.19
2023-04-11T05:03:41.245Z,98034.47
2023-04-11T05:04:45.240Z,98029.34
2023-04-11T05:05:48.268Z,98031.00
2023-04-11T05:06:51.625Z,98033.16
2023-04-11T05:07:54.656Z,98036.22
2023-04-11T05:09:01.355Z,98040.56
2023-04-11T05:10:04.689Z,98035.47
2023-04-11T05:11:08.313Z,98037.06
2023-04-11T05:12:11.174Z,98035.25
2023-04-11T05:13:14.186Z,98040.88
2023-04-11T05:14:17.495Z,98036.31
2023-04-11T05:15:23.198Z,98038.31
2023-04-11T05:16:26.798Z,98044.09
2023-04-11T05:17:30.041Z,98037.00
2023-04-11T05:18:34.947Z,98029.16
2023-04-11T05:19:38.125Z,98039.12
2023-04-11T05:20:41.847Z,98033.28
2023-04-11T05:21:44.683Z,98035.78
2023-04-11T05:22:49.606Z,98030.84
2023-04-11T05:23:52.529Z,98039.69
2023-04-11T05:24:57.324Z,98035.63
2023-04-11T05:26:00.235Z,98034.84
2023-04-11T05:27:03.147Z,98034.06
2023-04-11T05:28:06.314Z,98028.94
2023-04-11T05:29:09.632Z,98034.00
2023-04-11T05:30:13.151Z,98034.87
2023-04-11T05:31:17.232Z,98030.31
2023-04-11T05:32:20.153Z,98038.25
2023-04-11T05:33:23.802Z,98038.59
2023-04-11T05:34:31.596Z,98039.66
2023-04-11T05:35:34.719Z,98035.25
2023-04-11T05:36:37.879Z,98033.72
2023-04-11T05:37:42.015Z,98032.75
2023-04-11T05:38:45.584Z,98035.97
2023-04-11T05:39:48.617Z,98033.72
2023-04-11T05:40:51.388Z,98039.12
2023-04-11T05:41:54.306Z,98032.84
2023-04-11T05:42:57.333Z,98035.50
2023-04-11T05:44:00.310Z,98034.53
2023-04-11T05:45:03.239Z,98026.78
2023-04-11T05:46:08.092Z,98028.00
2023-04-11T05:47:12.132Z,98027.91
2023-04-11T05:48:16.259Z,98016.28
2023-04-11T05:49:19.303Z,98016.53
2023-04-11T05:50:22.395Z,98022.34
2023-04-11T05:51:25.245Z,98013.47
2023-04-11T05:52:28.071Z,98014.81
2023-04-11T05:53:32.127Z,98008.66
2023-04-11T05:54:37.001Z,98009.13
2023-04-11T05:55:39.812Z,98003.53
2023-04-11T05:56:43.086Z,98008.16
2023-04-11T05:57:45.830Z,98007.31
2023-04-11T05:58:49.360Z,98010.50
2023-04-11T05:59:53.261Z,98002.72
2023-04-11T06:00:58.054Z,98010.69
2023-04-11T06:02:02.019Z,98010.56
2023-04-11T06:03:06.274Z,98007.09
2023-04-11T06:04:09.636Z,98013.19
2023-04-11T06:05:12.611Z,98002.47
2023-04-11T06:06:16.014Z,98010.44
2023-04-11T06:07:19.044Z,98005.81
2023-04-11T06:08:22.359Z,98000.06
2023-04-11T06:09:25.303Z,98007.28
2023-04-11T06:10:29.598Z,97997.31
2023-04-11T06:11:32.488Z,97998.75
2023-04-11T06:12:35.694Z,98001.78
2023-04-11T06:13:38.578Z,97997.28
2023-04-11T06:14:41.554Z,98000.19
2023-04-11T06:15:44.381Z,98005.22
2023-04-11T06:16:47.446Z,97997.28
2023-04-11T06:17:50.930Z,97996.69
2023-04-11T06:18:54.057Z,97999.03
2023-04-11T06:19:57.017Z,98003.91
2023-04-11T06:20:59.854Z,98001.91
2023-04-11T06:22:02.953Z,97995.09
2023-04-11T06:23:05.882Z,98001.47
2023-04-11T06:24:11.133Z,97997.53
2023-04-11T06:25:14.614Z,97995.69
2023-04-11T06:26:17.453Z,97996.69
2023-04-11T06:27:20.454Z,97998.41
2023-04-11T06:28:23.373Z,97990.31
2023-04-11T06:29:26.353Z,97988.69
2023-04-11T06:30:29.942Z,97987.53
2023-04-11T06:31:33.876Z,97988.50
2023-04-11T06:32:36.949Z,97987.38
2023-04-11T06:33:39.864Z,97989.09
2023-04-11T06:34:42.878Z,97991.53
2023-04-11T06:35:45.922Z,97985.75
2023-04-11T06:36:50.168Z,97987.59
2023-04-11T06:37:53.106Z,97986.56
2023-04-11T06:38:57.456Z,97985.38
2023-04-11T06:40:00.928Z,97989.84
2023-04-11T06:41:04.031Z,97992.41
2023-04-11T06:42:07.058Z,97993.78
2023-04-11T06:43:09.960Z,97995.94
2023-04-11T06:44:13.024Z,97995.34
2023-04-11T06:45:16.516Z,97990.00
2023-04-11T06:46:19.368Z,97994.31
2023-04-11T06:47:22.482Z,97995.91
2023-04-11T06:48:25.640Z,97994.28
2023-04-11T06:49:29.821Z,98000.88
2023-04-11T06:50:32.786Z,97993.22
2023-04-11T06:51:36.282Z,97996.84
2023-04-11T06:52:39.480Z,97992.31
2023-04-11T06:53:42.353Z,97999.28
2023-04-11T06:54:45.408Z,97982.19
2023-04-11T06:55:51.543Z,97986.63
2023-04-11T06:56:54.427Z,97987.13
2023-04-11T06:57:57.330Z,97990.03
2023-04-11T06:59:00.385Z,97988.84
2023-04-11T07:00:07.216Z,97984.78
2023-04-11T07:01:10.609Z,97980.97
2023-04-11T07:02:14.258Z,97988.63
2023-04-11T07:03:18.600Z,97991.53
2023-04-11T07:04:22.312Z,97987.91
2023-04-11T07:05:26.868Z,97986.63
2023-04-11T07:06:30.727Z,97990.81
2023-04-11T07:07:33.576Z,97990.13
2023-04-11T07:08:37.151Z,97982.97
2023-04-11T07:09:40.008Z,97980.59
2023-04-11T07:10:42.998Z,97977.06
2023-04-11T07:11:46.502Z,97970.41
2023-04-11T07:12:49.548Z,97973.06
2023-04-11T07:13:52.437Z,97974.28
2023-04-11T07:14:55.580Z,97974.41
2023-04-11T07:15:58.403Z,97972.38
2023-04-11T07:17:01.703Z,97977.66
2023-04-11T07:18:04.824Z,97971.81
2023-04-11T07:19:07.975Z,97977.56
2023-04-11T07:20:11.786Z,97972.03
2023-04-11T07:21:15.693Z,97972.00
2023-04-11T07:22:19.551Z,97978.12
2023-04-11T07:23:23.814Z,97972.56
2023-04-11T07:24:27.388Z,97974.44
2023-04-11T07:25:33.958Z,97974.44
2023-04-11T07:26:39.090Z,97978.78
2023-04-11T07:27:43.948Z,97971.81
2023-04-11T07:28:47.649Z,97973.53
2023-04-11T07:29:51.251Z,97973.19
2023-04-11T07:30:54.028Z,97973.28
2023-04-11T07:31:57.230Z,97972.44
2023-04-11T07:33:01.003Z,97972.44
2023-04-11T07:34:04.113Z,97974.28
2023-04-11T07:35:07.484Z,97967.81
2023-04-11T07:36:11.628Z,97972.38
2023-04-11T07:37:14.495Z,97969.84
2023-04-11T07:38:27.622Z,97977.12
2023-04-11T07:39:30.531Z,97977.12
2023-04-11T07:40:33.500Z,97979.78
2023-04-11T07:41:37.511Z,97978.09
2023-04-11T07:42:41.184Z,97977.38
2023-04-11T07:43:44.296Z,97984.22
2023-04-11T07:44:47.464Z,97992.22
2023-04-11T07:45:50.743Z,97990.78
2023-04-11T07:46:53.598Z,97989.13
2023-04-11T07:47:56.627Z,97982.38
2023-04-11T07:48:59.682Z,97982.16
2023-04-11T07:50:02.838Z,97978.78
2023-04-11T07:51:06.108Z,97974.44
2023-04-11T07:52:09.022Z,97973.53
2023-04-11T07:53:13.267Z,97966.69
2023-04-11T07:54:16.968Z,97968.13
2023-04-11T07:55:19.792Z,97970.88
2023-04-11T07:56:22.760Z,97965.59
2023-04-11T07:57:25.783Z,97968.47
2023-04-11T07:58:29.239Z,97965.81
2023-04-11T07:59:32.414Z,97963.19
2023-04-11T08:00:35.438Z,97956.25
2023-04-11T08:01:38.654Z,97961.41
2023-04-11T08:02:42.252Z,97955.88
2023-04-11T08:03:45.588Z,97960.31
2023-04-11T08:04:49.022Z,97956.34
2023-04-11T08:05:52.486Z,97956.25
2023-04-11T08:06:57.063Z,97964.63
2023-04-11T08:08:01.240Z,97957.91
2023-04-11T08:09:04.301Z,97961.50
2023-04-11T08:10:08.392Z,97952.63
2023-04-11T08:11:11.406Z,97953.34
2023-04-11T08:12:14.363Z,97951.88
2023-04-11T08:13:17.310Z,97958.13
2023-04-11T08:14:20.123Z,97955.22
2023-04-11T08:15:22.969Z,97947.75
2023-04-11T08:16:26.075Z,97943.69
2023-04-11T08:17:29.604Z,97940.69
2023-04-11T08:18:33.139Z,97933.81
2023-04-11T08:19:37.115Z,97937.88
2023-04-11T08:20:41.045Z,97936.22
2023-04-11T08:21:44.189Z,97934.81
2023-04-11T08:22:47.500Z,97940.31
2023-04-11T08:23:53.405Z,97933.47
2023-04-11T08:24:56.550Z,97935.41
2023-04-11T08:25:59.451Z,97932.53
2023-04-11T08:27:02.701Z,97930.81
2023-04-11T08:28:06.373Z,97925.66
2023-04-11T08:29:12.819Z,97922.28
2023-04-11T08:30:16.388Z,97922.16
2023-04-11T08:31:19.715Z,97920.84
2023-04-11T08:32:23.594Z,97916.03
2023-04-11T08:33:27.710Z,97916.97
2023-04-11T08:34:33.629Z,97917.31
2023-04-11T08:35:38.109Z,97910.88
2023-04-11T08:36:41.916Z,97901.28
2023-04-11T08:37:44.804Z,97901.47
2023-04-11T08:38:47.946Z,97896.59
2023-04-11T08:39:50.942Z,97898.63
2023-04-11T08:40:55.187Z,97898.13
2023-04-11T08:41:58.188Z,97896.09
2023-04-11T08:43:01.783Z,97893.25
2023-04-11T08:44:04.748Z,97888.84
2023-04-11T08:45:09.566Z,97897.34
2023-04-11T08:46:13.249Z,97895.41
2023-04-11T08:47:16.401Z,97896.34
2023-04-11T08:48:25.573Z,97891.09
2023-04-11T08:49:28.597Z,97895.91
2023-04-11T08:50:31.701Z,97887.72
2023-04-11T08:51:35.496Z,97890.00
2023-04-11T08:52:41.308Z,97884.97
2023-04-11T08:53:45.555Z,97881.97
2023-04-11T08:54:51.732Z,97879.22
2023-04-11T08:55:54.766Z,97874.44
2023-04-11T08:56:57.641Z,97876.97
2023-04-11T08:58:03.076Z,97879.03
2023-04-11T08:59:06.222Z,97867.56
2023-04-11T09:00:15.033Z,97871.97
2023-04-11T09:01:35.268Z,97872.09
2023-04-11T09:03:11.389Z,97877.59
2023-04-11T09:04:14.499Z,97881.28
2023-04-11T09:05:38.857Z,97879.72
2023-04-11T09:07:01.015Z,97871.03
2023-04-11T09:08:07.105Z,97873.81
2023-04-11T09:09:29.262Z,97872.59
2023-04-11T09:10:32.118Z,97874.22
2023-04-11T09:11:54.786Z,97874.81
2023-04-11T09:12:58.309Z,97869.94
2023-04-11T09:14:08.756Z,97875.03
2023-04-11T09:15:26.242Z,97870.53
2023-04-11T09:16:29.406Z,97862.06
2023-04-11T09:17:42.620Z,97871.75
2023-04-11T09:18:47.295Z,97861.94
2023-04-11T09:19:50.193Z,97866.87
2023-04-11T09:21:01.239Z,97860.81
2023-04-11T09:22:08.174Z,97863.69
2023-04-11T09:23:25.400Z,97862.06
2023-04-11T09:24:31.088Z,97866.37
2023-04-11T09:25:45.085Z,97852.63
2023-04-11T09:26:48.074Z,97849.16
2023-04-11T09:28:07.707Z,97848.22
2023-04-11T09:29:10.880Z,97845.56
2023-04-11T09:30:24.355Z,97845.34
2023-04-11T09:31:44.805Z,97844.00
2023-04-11T09:32:49.066Z,97845.63
2023-04-11T09:33:57.138Z,97847.19
2023-04-11T09:35:24.230Z,97842.16
2023-04-11T09:36:30.620Z,97843.06
2023-04-11T09:37:45.635Z,97840.84
2023-04-11T09:38:48.636Z,97849.94
2023-04-11T09:40:00.897Z,97848.09
2023-04-11T09:41:05.718Z,97844.72
2023-04-11T09:42:25.558Z,97851.44
2023-04-11T09:43:48.560Z,97848.34
2023-04-11T09:44:51.800Z,97849.47
2023-04-11T09:46:18.863Z,97854.69
2023-04-11T09:47:21.933Z,97855.56
2023-04-11T09:48:35.540Z,97845.88
2023-04-11T09:49:47.624Z,97841.12
2023-04-11T09:50:52.107Z,97832.56
2023-04-11T09:51:56.579Z,97829.19
2023-04-11T09:52:59.608Z,97831.88
2023-04-11T09:54:04.320Z,97830.00
2023-04-11T09:55:08.525Z,97824.09
2023-04-11T09:56:12.119Z,97820.59
2023-04-11T09:57:15.595Z,97817.00
2023-04-11T09:58:21.393Z,97818.16
2023-04-11T09:59:27.622Z,97816.44
2023-04-11T10:00:32.464Z,97816.88
2023-04-11T10:01:37.508Z,97821.78
2023-04-11T10:02:42.056Z,97818.47
2023-04-11T10:03:47.894Z,97826.72
2023-04-11T10:04:51.637Z,97815.59
2023-04-11T10:05:55.954Z,97818.06
2023-04-11T10:07:17.275Z,97809.00
2023-04-11T10:08:33.888Z,97814.53
2023-04-11T10:09:43.277Z,97812.03
2023-04-11T10:10:46.457Z,97816.16
2023-04-11T10:11:49.996Z,97815.00
2023-04-11T10:12:52.857Z,97813.84
2023-04-11T10:13:56.180Z,97806.03
2023-04-11T10:15:08.541Z,97811.69
2023-04-11T10:16:13.813Z,97811.25
2023-04-11T10:17:23.515Z,97803.38
2023-04-11T10:18:27.580Z,97804.13
2023-04-11T10:19:30.816Z,97804.91
2023-04-11T10:20:42.848Z,97798.41
2023-04-11T10:21:47.001Z,97801.16
2023-04-11T10:22:49.948Z,97791.19
2023-04-11T10:24:18.548Z,97794.88
2023-04-11T10:25:22.433Z,97781.47
2023-04-11T10:26:48.757Z,97785.63
2023-04-11T10:28:04.864Z,97786.12
2023-04-11T10:29:33.982Z,97779.41
2023-04-11T10:30:39.935Z,97780.69
2023-04-11T10:32:14.088Z,97776.56
2023-04-11T10:33:21.133Z,97777.25
2023-04-11T10:34:24.057Z,97777.44
2023-04-11T10:35:27.765Z,97772.03
2023-04-11T10:37:06.468Z,97768.81
2023-04-11T10:38:41.679Z,97774.00
2023-04-11T10:39:51.490Z,97761.84
2023-04-11T10:41:25.660Z,97761.84
2023-04-11T10:42:30.204Z,97763.50
2023-04-11T10:43:33.201Z,97770.19
2023-04-11T10:44:36.680Z,97769.25
2023-04-11T10:45:40.569Z,97759.75
2023-04-11T10:46:54.034Z,97757.94
2023-04-11T10:47:57.433Z,97753.44
2023-04-11T10:49:04.990Z,97756.78
2023-04-11T10:50:26.631Z,97750.75
2023-04-11T10:51:31.766Z,97747.03
2023-04-11T10:52:38.672Z,97749.56
2023-04-11T10:53:41.706Z,97740.22
2023-04-11T10:54:48.393Z,97747.28
2023-04-11T10:55:51.506Z,97744.41
2023-04-11T10:56:55.343Z,97740.44
2023-04-11T10:58:08.510Z,97735.13
2023-04-11T10:59:34.509Z,97738.47
2023-04-11T11:00:55.873Z,97737.41
2023-04-11T11:02:02.988Z,97744.75
2023-04-11T11:03:16.868Z,97736.63
2023-04-11T11:04:20.917Z,97733.19
2023-04-11T11:05:24.895Z,97740.34
2023-04-11T11:06:29.498Z,97725.53
2023-04-11T11:07:32.610Z,97740.13
2023-04-11T11:08:38.283Z,97735.59
2023-04-11T11:09:41.542Z,97727.97
2023-04-11T11:10:49.069Z,97730.09
2023-04-11T11:12:14.528Z,97726.59
2023-04-11T11:13:17.883Z,97715.34
2023-04-11T11:14:30.626Z,97714.78
2023-04-11T11:15:38.056Z,97712.50
2023-04-11T11:16:46.822Z,97719.28
2023-04-11T11:17:49.978Z,97711.88
2023-04-11T11:19:02.906Z,97707.53
2023-04-11T11:20:10.385Z,97708.75
2023-04-11T11:21:20.600Z,97706.47
2023-04-11T11:22:30.100Z,97712.16
2023-04-11T11:23:33.918Z,97707.03
2023-04-11T11:24:37.651Z,97701.50
2023-04-11T11:25:41.460Z,97702.91
2023-04-11T11:26:44.721Z,97697.84
2023-04-11T11:27:48.169Z,97694.63
2023-04-11T11:28:51.430Z,97705.16
2023-04-11T11:29:54.244Z,97700.97
2023-04-11T11:30:57.877Z,97695.06
2023-04-11T11:32:05.296Z,97696.00
2023-04-11T11:33:18.551Z,97696.72
2023-04-11T11:34:29.391Z,97697.50
2023-04-11T11:35:32.470Z,97691.59
2023-04-11T11:36:46.798Z,97694.44
2023-04-11T11:37:54.171Z,97685.03
2023-04-11T11:38:57.609Z,97689.09
2023-04-11T11:40:01.066Z,97693.06
2023-04-11T11:41:04.728Z,97685.84
2023-04-11T11:42:07.829Z,97682.53
2023-04-11T11:43:10.720Z,97682.25
2023-04-11T11:44:24.185Z,97683.41
2023-04-11T11:45:27.225Z,97688.75
2023-04-11T11:46:33.795Z,97685.78
2023-04-11T11:47:44.655Z,97687.94
2023-04-11T11:49:03.039Z,97683.41
2023-04-11T11:50:06.730Z,97685.00
2023-04-11T11:51:10.310Z,97679.41
2023-04-11T11:52:31.951Z,97689.00
2023-04-11T11:53:34.929Z,97680.59
2023-04-11T11:54:47.482Z,97691.66
2023-04-11T11:55:50.623Z,97694.13
2023-04-11T11:56:53.447Z,97697.34
2023-04-11T11:58:01.521Z,97696.75
2023-04-11T11:59:05.541Z,97698.47
2023-04-11T12:00:11.922Z,97686.81
2023-04-11T12:01:16.472Z,97686.72
2023-04-11T12:02:21.836Z,97688.25
2023-04-11T12:03:25.351Z,97680.06
2023-04-11T12:04:28.879Z,97686.25
2023-04-11T12:05:33.914Z,97683.00
2023-04-11T12:06:36.991Z,97685.94
2023-04-11T12:07:40.800Z,97681.03
2023-04-11T12:08:45.748Z,97689.59
2023-04-11T12:09:49.896Z,97674.31
2023-04-11T12:10:52.931Z,97683.63
2023-04-11T12:11:56.488Z,97685.13
2023-04-11T12:12:59.482Z,97682.22
2023-04-11T12:14:02.880Z,97684.91
2023-04-11T12:15:20.242Z,97681.16
2023-04-11T12:16:24.167Z,97683.66
2023-04-11T12:17:35.596Z,97691.00
2023-04-11T12:18:43.026Z,97683.09
2023-04-11T12:19:46.104Z,97677.50
2023-04-11T12:20:49.837Z,97678.25
2023-04-11T12:21:53.312Z,97682.47
2023-04-11T12:22:56.554Z,97681.69
2023-04-11T12:23:59.663Z,97680.41
2023-04-11T12:25:07.485Z,97684.31
2023-04-11T12:26:10.424Z,97682.94
2023-04-11T12:27:13.368Z,97681.75
2023-04-11T12:28:16.629Z,97675.44
2023-04-11T12:29:19.620Z,97677.25
2023-04-11T12:30:22.800Z,97680.03
2023-04-11T12:31:27.390Z,97678.97
2023-04-11T12:32:33.268Z,97670.50
2023-04-11T12:33:36.336Z,97675.06
2023-04-11T12:34:39.166Z,97679.69
2023-04-11T12:35:42.140Z,97679.91
2023-04-11T12:36:45.068Z,97674.34
2023-04-11T12:37:48.212Z,97671.28
2023-04-11T12:38:51.237Z,97662.66
2023-04-11T12:39:55.044Z,97668.06
2023-04-11T12:41:19.747Z,97671.16
2023-04-11T12:42:23.983Z,97662.69
2023-04-11T12:43:29.907Z,97657.69